createdAt,value
2023-11-29T00:02:43.375Z,5.40
2023-11-29T00:05:11.681Z,6.38
2023-11-29T00:07:41.891Z,5.95
2023-11-29T00:10:09.315Z,5.88
2023-11-29T00:12:36.621Z,5.80
2023-11-29T00:15:05.122Z,5.95
2023-11-29T00:17:32.384Z,5.55
2023-11-29T00:19:59.673Z,6.05
2023-11-29T00:22:26.847Z,5.45
2023-11-29T00:24:54.057Z,5.68
2023-11-29T00:27:22.302Z,5.85
2023-11-29T00:29:50.066Z,6.05
2023-11-29T00:32:17.373Z,5.90
2023-11-29T00:34:44.601Z,6.22
2023-11-29T00:37:11.805Z,4.80
2023-11-29T00:42:06.033Z,5.50
2023-11-29T00:46:59.940Z,4.60
2023-11-29T00:49:27.171Z,4.97
2023-11-29T00:54:20.977Z,4.15
2023-11-29T00:59:15.020Z,4.10
2023-11-29T01:01:42.191Z,4.28
2023-11-29T01:06:36.041Z,4.00
2023-11-29T01:09:05.372Z,3.55
2023-11-29T01:11:32.618Z,3.67
2023-11-29T01:13:59.833Z,3.53
2023-11-29T01:16:26.950Z,3.22
2023-11-29T01:18:55.069Z,3.22
2023-11-29T01:21:28.923Z,3.30
2023-11-29T01:23:59.478Z,3.28
2023-11-29T01:26:26.688Z,3.42
2023-11-29T01:28:53.878Z,3.42
2023-11-29T01:33:47.669Z,2.97
2023-11-29T01:38:41.997Z,3.40
2023-11-29T01:41:09.219Z,3.15
2023-11-29T01:43:36.415Z,3.70
2023-11-29T01:46:04.419Z,3.42
2023-11-29T01:48:32.185Z,3.00
2023-11-29T01:50:59.745Z,2.95
2023-11-29T01:53:28.729Z,2.95
2023-11-29T01:55:57.529Z,2.60
2023-11-29T01:58:25.161Z,2.40
2023-11-29T02:00:53.014Z,1.90
2023-11-29T02:03:21.658Z,1.75
2023-11-29T02:05:49.297Z,1.80
2023-11-29T02:08:16.600Z,2.20
2023-11-29T02:10:44.996Z,1.77
2023-11-29T02:13:13.057Z,2.00
2023-11-29T02:15:40.430Z,1.90
2023-11-29T02:18:07.778Z,1.90
2023-11-29T02:20:35.105Z,2.17
2023-11-29T02:23:11.860Z,1.98
2023-11-29T02:25:39.018Z,1.90
2023-11-29T02:28:06.208Z,1.77
2023-11-29T02:30:33.602Z,1.60
2023-11-29T02:33:00.837Z,1.88
2023-11-29T02:35:28.076Z,1.75
2023-11-29T02:37:55.264Z,1.65
2023-11-29T02:40:23.623Z,1.70
2023-11-29T02:42:50.752Z,1.45
2023-11-29T02:45:18.098Z,1.55
2023-11-29T02:47:45.306Z,1.70
2023-11-29T02:50:12.631Z,1.65
2023-11-29T02:52:39.836Z,1.67
2023-11-29T02:55:08.147Z,1.52
2023-11-29T02:57:35.272Z,1.70
2023-11-29T03:00:02.384Z,1.65
2023-11-29T03:02:29.693Z,1.70
2023-11-29T03:04:56.892Z,1.70
2023-11-29T03:07:24.065Z,2.60
2023-11-29T03:09:51.166Z,1.50
2023-11-29T03:12:18.405Z,1.52
2023-11-29T03:14:45.614Z,1.52
2023-11-29T03:17:12.834Z,1.30
2023-11-29T03:19:39.944Z,1.40
2023-11-29T03:22:07.416Z,1.60
2023-11-29T03:24:35.229Z,1.23
2023-11-29T03:29:29.110Z,1.10
2023-11-29T03:31:56.380Z,1.00
2023-11-29T03:34:24.101Z,1.10
2023-11-29T03:36:51.260Z,1.40
2023-11-29T03:39:18.448Z,1.38
2023-11-29T03:41:45.675Z,1.10
2023-11-29T03:44:13.704Z,1.35
2023-11-29T03:46:40.858Z,1.15
2023-11-29T03:49:07.997Z,1.20
2023-11-29T03:51:38.482Z,1.02
2023-11-29T03:54:09.399Z,1.40
2023-11-29T03:56:36.681Z,0.80
2023-11-29T03:59:03.895Z,1.10
2023-11-29T04:01:34.505Z,1.10
2023-11-29T04:04:03.267Z,1.40
2023-11-29T04:06:30.731Z,0.90
2023-11-29T04:08:57.932Z,0.90
2023-11-29T04:11:25.644Z,1.83
2023-11-29T04:13:52.829Z,1.17
2023-11-29T04:16:30.598Z,1.00
2023-11-29T04:18:58.349Z,1.00
2023-11-29T04:21:28.337Z,1.88
2023-11-29T04:23:56.237Z,1.45
2023-11-29T04:26:30.205Z,1.20
2023-11-29T04:29:00.233Z,1.40
2023-11-29T04:31:27.647Z,1.40
2023-11-29T04:33:54.856Z,1.23
2023-11-29T04:36:22.031Z,1.10
2023-11-29T04:38:49.437Z,1.15
2023-11-29T04:41:17.685Z,1.10
2023-11-29T04:43:45.333Z,1.30
2023-11-29T04:46:13.013Z,1.30
2023-11-29T04:48:40.420Z,1.15
2023-11-29T04:51:07.899Z,1.10
2023-11-29T04:53:35.080Z,1.10
2023-11-29T04:56:03.783Z,1.20
2023-11-29T04:58:31.171Z,1.33
2023-11-29T05:00:58.311Z,1.35
2023-11-29T05:03:26.047Z,1.30
2023-11-29T05:05:53.346Z,0.90
2023-11-29T05:08:21.181Z,0.95
2023-11-29T05:10:48.371Z,1.10
2023-11-29T05:13:15.513Z,1.13
2023-11-29T05:15:48.880Z,0.77
2023-11-29T05:20:43.157Z,0.57
2023-11-29T05:23:10.384Z,1.00
2023-11-29T05:25:37.562Z,0.60
2023-11-29T05:28:05.091Z,0.68
2023-11-29T05:30:32.209Z,0.82
2023-11-29T05:32:59.433Z,0.60
2023-11-29T05:35:27.575Z,0.80
2023-11-29T05:37:54.745Z,0.90
2023-11-29T05:40:21.981Z,0.90
2023-11-29T05:42:49.225Z,0.80
2023-11-29T05:45:16.400Z,0.90
2023-11-29T05:47:43.691Z,0.90
2023-11-29T05:50:10.922Z,0.70
2023-11-29T05:52:38.150Z,0.80
2023-11-29T05:55:06.510Z,0.60
2023-11-29T05:57:33.711Z,0.65
2023-11-29T06:00:23.298Z,0.85
2023-11-29T06:02:55.645Z,0.70
2023-11-29T06:05:22.842Z,0.50
2023-11-29T06:07:50.124Z,0.63
2023-11-29T06:10:17.281Z,0.73
2023-11-29T06:12:45.711Z,0.60
2023-11-29T06:15:13.984Z,0.93
2023-11-29T06:17:41.747Z,0.57
2023-11-29T06:20:10.748Z,0.73
2023-11-29T06:22:38.108Z,0.73
2023-11-29T06:25:06.134Z,0.65
2023-11-29T06:27:33.397Z,0.65
2023-11-29T06:30:00.997Z,0.80
2023-11-29T06:32:28.229Z,0.90
2023-11-29T06:34:57.581Z,0.52
2023-11-29T06:37:24.793Z,0.77
2023-11-29T06:39:51.970Z,0.63
2023-11-29T06:42:19.200Z,0.90
2023-11-29T06:44:46.398Z,1.27
2023-11-29T06:47:14.923Z,0.98
2023-11-29T06:49:42.128Z,0.90
2023-11-29T06:52:09.728Z,1.10
2023-11-29T06:54:37.344Z,1.00
2023-11-29T06:57:04.500Z,2.30
2023-11-29T06:59:31.709Z,1.70
2023-11-29T07:01:58.948Z,1.80
2023-11-29T07:04:28.675Z,2.22
2023-11-29T07:06:56.820Z,2.00
2023-11-29T07:09:24.073Z,1.60
2023-11-29T07:11:51.287Z,1.77
2023-11-29T07:14:18.512Z,1.98
2023-11-29T07:16:45.650Z,1.63
2023-11-29T07:21:39.389Z,1.42
2023-11-29T07:24:07.099Z,1.20
2023-11-29T07:26:34.317Z,1.20
2023-11-29T07:29:01.445Z,1.10
2023-11-29T07:31:28.599Z,1.65
2023-11-29T07:33:57.907Z,1.10
2023-11-29T07:36:25.093Z,1.17
2023-11-29T07:38:52.353Z,1.30
2023-11-29T07:41:21.758Z,1.10
2023-11-29T07:43:49.053Z,1.10
2023-11-29T07:46:18.419Z,1.30
2023-11-29T07:48:45.697Z,1.48
2023-11-29T07:51:12.867Z,1.42
2023-11-29T07:53:40.078Z,1.60
2023-11-29T07:56:08.654Z,1.30
2023-11-29T07:58:37.210Z,1.50
2023-11-29T08:01:06.740Z,1.38
2023-11-29T08:03:34.054Z,1.45
2023-11-29T08:06:01.216Z,1.70
2023-11-29T08:08:28.408Z,1.50
2023-11-29T08:10:55.558Z,1.75
2023-11-29T08:13:22.672Z,1.80
2023-11-29T08:15:49.826Z,1.77
2023-11-29T08:18:17.006Z,1.85
2023-11-29T08:20:44.202Z,1.88
2023-11-29T08:23:11.414Z,1.83
2023-11-29T08:25:38.546Z,2.00
2023-11-29T08:28:05.699Z,1.63
2023-11-29T08:30:32.916Z,1.70
2023-11-29T08:33:00.370Z,1.90
2023-11-29T08:35:27.573Z,1.92
2023-11-29T08:37:54.933Z,1.95
2023-11-29T08:40:22.117Z,2.10
2023-11-29T08:42:49.384Z,1.63
2023-11-29T08:45:16.881Z,2.00
2023-11-29T08:47:44.162Z,1.92
2023-11-29T08:50:11.321Z,1.98
2023-11-29T08:52:38.578Z,1.90
2023-11-29T08:55:06.190Z,2.13
2023-11-29T08:57:33.437Z,2.30
2023-11-29T09:00:00.850Z,1.95
2023-11-29T09:02:31.152Z,2.47
2023-11-29T09:04:59.090Z,2.38
2023-11-29T09:07:26.839Z,2.20
2023-11-29T09:09:56.238Z,2.10
2023-11-29T09:12:27.060Z,2.60
2023-11-29T09:14:57.605Z,2.15
2023-11-29T09:17:25.185Z,2.33
2023-11-29T09:19:54.890Z,2.20
2023-11-29T09:22:24.932Z,2.30
2023-11-29T09:24:52.074Z,2.28
2023-11-29T09:27:19.299Z,2.28
2023-11-29T09:29:46.988Z,2.08
2023-11-29T09:32:14.240Z,2.00
2023-11-29T09:34:41.456Z,2.10
2023-11-29T09:37:08.602Z,1.88
2023-11-29T09:39:35.689Z,2.13
2023-11-29T09:42:04.132Z,2.28
2023-11-29T09:44:31.709Z,1.80
2023-11-29T09:46:59.699Z,1.42
2023-11-29T09:49:29.419Z,1.80
2023-11-29T09:51:56.952Z,1.67
2023-11-29T09:54:25.819Z,1.60
2023-11-29T09:56:53.209Z,1.80
2023-11-29T09:59:23.040Z,1.60
2023-11-29T10:01:51.715Z,1.80
2023-11-29T10:04:19.101Z,1.75
2023-11-29T10:06:46.340Z,1.70
2023-11-29T10:09:14.291Z,1.70
2023-11-29T10:11:42.188Z,1.45
2023-11-29T10:14:09.655Z,1.48
2023-11-29T10:16:36.929Z,1.42
2023-11-29T10:19:05.006Z,1.67
2023-11-29T10:21:32.336Z,1.48
2023-11-29T10:23:59.658Z,1.27
2023-11-29T10:26:26.802Z,1.40
2023-11-29T10:28:55.112Z,1.27
2023-11-29T10:31:23.867Z,1.45
2023-11-29T10:33:51.665Z,1.45
2023-11-29T10:36:22.208Z,1.80
2023-11-29T10:38:52.432Z,1.50
2023-11-29T10:41:20.509Z,1.70
2023-11-29T10:43:50.960Z,1.40
2023-11-29T10:46:24.055Z,1.58
2023-11-29T10:48:54.684Z,1.50
2023-11-29T10:51:23.041Z,1.70
2023-11-29T10:53:51.064Z,1.67
2023-11-29T10:56:18.580Z,1.65
2023-11-29T10:58:47.917Z,1.75
2023-11-29T11:01:15.609Z,1.45
2023-11-29T11:03:49.363Z,1.45
2023-11-29T11:06:22.982Z,1.30
2023-11-29T11:08:50.765Z,1.40
2023-11-29T11:11:37.524Z,1.45
2023-11-29T11:14:06.217Z,1.55
2023-11-29T11:16:34.641Z,1.40
2023-11-29T11:19:03.326Z,1.42
2023-11-29T11:21:30.887Z,1.38
2023-11-29T11:24:01.466Z,1.60
2023-11-29T11:26:30.114Z,1.60
2023-11-29T11:29:00.624Z,1.55
2023-11-29T11:31:29.402Z,1.20
2023-11-29T11:33:56.585Z,1.15
2023-11-29T11:36:24.464Z,1.25
2023-11-29T11:38:51.853Z,1.25
2023-11-29T11:41:19.202Z,1.20
2023-11-29T11:43:46.998Z,1.00
2023-11-29T11:46:14.303Z,1.30
2023-11-29T11:48:41.517Z,1.52
2023-11-29T11:51:08.949Z,1.50
2023-11-29T11:53:42.799Z,1.50
2023-11-29T11:56:19.759Z,1.38
2023-11-29T11:58:47.391Z,1.30
2023-11-29T12:01:15.278Z,1.30
2023-11-29T12:03:42.730Z,1.50
2023-11-29T12:06:10.507Z,1.40
2023-11-29T12:08:38.476Z,1.40
2023-11-29T12:11:08.882Z,1.40
2023-11-29T12:13:36.094Z,1.40
2023-11-29T12:16:13.068Z,1.98
2023-11-29T12:18:41.009Z,1.60
2023-11-29T12:21:08.994Z,1.63
2023-11-29T12:23:38.287Z,1.70
2023-11-29T12:26:05.800Z,1.23
2023-11-29T12:28:34.079Z,1.55
2023-11-29T12:31:01.647Z,1.48
2023-11-29T12:33:28.863Z,1.33
2023-11-29T12:35:56.088Z,1.60
2023-11-29T12:38:23.345Z,1.35
2023-11-29T12:40:50.528Z,1.48
2023-11-29T12:43:19.095Z,1.50
2023-11-29T12:45:46.206Z,2.97
2023-11-29T12:48:13.498Z,3.38
2023-11-29T12:50:40.712Z,2.90
2023-11-29T12:53:08.211Z,2.88
2023-11-29T12:55:35.411Z,2.53
2023-11-29T12:58:07.056Z,1.58
2023-11-29T13:00:34.290Z,1.50
2023-11-29T13:03:01.876Z,1.42
2023-11-29T13:05:29.226Z,1.40
2023-11-29T13:07:56.428Z,1.30
2023-11-29T13:10:23.602Z,1.20
2023-11-29T13:12:50.826Z,1.50
2023-11-29T13:15:19.932Z,1.25
2023-11-29T13:17:47.169Z,1.42
2023-11-29T13:20:14.408Z,1.40
2023-11-29T13:22:42.534Z,1.00
2023-11-29T13:25:11.107Z,1.30
2023-11-29T13:27:38.265Z,1.55
2023-11-29T13:30:05.613Z,1.27
2023-11-29T13:32:32.836Z,1.10
2023-11-29T13:35:00.062Z,1.05
2023-11-29T13:37:27.211Z,1.00
2023-11-29T13:39:54.361Z,1.10
2023-11-29T13:42:21.507Z,1.20
2023-11-29T13:44:49.259Z,1.30
2023-11-29T13:47:16.539Z,1.25
2023-11-29T13:49:43.724Z,1.23
2023-11-29T13:52:19.876Z,1.08
2023-11-29T13:54:50.883Z,1.30
2023-11-29T13:57:18.019Z,1.20
2023-11-29T13:59:45.355Z,1.50
2023-11-29T14:02:17.957Z,1.23
2023-11-29T14:04:46.647Z,1.20
2023-11-29T14:07:14.084Z,1.48
2023-11-29T14:09:41.285Z,1.20
2023-11-29T14:12:08.633Z,1.00
2023-11-29T14:14:35.849Z,1.10
2023-11-29T14:17:03.052Z,1.20
2023-11-29T14:19:30.244Z,0.82
2023-11-29T14:21:57.382Z,0.90
2023-11-29T14:24:24.573Z,1.17
2023-11-29T14:26:54.342Z,1.40
2023-11-29T14:29:23.602Z,1.20
2023-11-29T14:31:51.823Z,1.00
2023-11-29T14:34:19.099Z,1.20
2023-11-29T14:36:48.657Z,1.05
2023-11-29T14:39:16.003Z,1.15
2023-11-29T14:41:44.593Z,1.00
2023-11-29T14:44:11.859Z,0.80
2023-11-29T14:46:39.098Z,1.45
2023-11-29T14:49:13.479Z,1.10
2023-11-29T14:51:44.392Z,1.10
2023-11-29T14:54:11.644Z,1.00
2023-11-29T14:56:39.050Z,0.98
2023-11-29T14:59:06.381Z,1.20
2023-11-29T15:01:33.528Z,1.33
2023-11-29T15:04:00.859Z,1.30
2023-11-29T15:06:28.058Z,1.33
2023-11-29T15:08:55.272Z,1.38
2023-11-29T15:11:22.469Z,1.33
2023-11-29T15:13:50.611Z,1.40
2023-11-29T15:16:18.004Z,1.65
2023-11-29T15:18:45.367Z,1.90
2023-11-29T15:21:12.679Z,1.90
2023-11-29T15:23:39.887Z,2.25
2023-11-29T15:26:07.258Z,2.10
2023-11-29T15:28:34.580Z,2.03
2023-11-29T15:31:01.787Z,2.35
2023-11-29T15:33:29.137Z,4.22
2023-11-29T15:35:58.727Z,3.67
2023-11-29T15:38:26.153Z,3.20
2023-11-29T15:40:53.305Z,3.15
2023-11-29T15:43:20.554Z,3.03
2023-11-29T15:45:48.500Z,3.17
2023-11-29T15:48:16.284Z,2.40
2023-11-29T15:50:43.746Z,2.40
2023-11-29T15:53:11.011Z,3.17
2023-11-29T15:55:39.578Z,3.90
2023-11-29T15:58:06.911Z,7.20
2023-11-29T16:00:34.098Z,6.40
2023-11-29T16:03:01.591Z,5.05
2023-11-29T16:05:28.897Z,5.63
2023-11-29T16:07:56.061Z,4.65
2023-11-29T16:10:24.065Z,4.93
2023-11-29T16:12:51.827Z,3.88
2023-11-29T16:15:19.575Z,4.50
2023-11-29T16:17:47.043Z,4.00
2023-11-29T16:20:14.237Z,3.80
2023-11-29T16:22:41.389Z,4.10
2023-11-29T16:25:08.953Z,3.67
2023-11-29T16:27:37.218Z,3.72
2023-11-29T16:30:06.072Z,3.83
2023-11-29T16:32:34.474Z,4.25
2023-11-29T16:35:02.108Z,4.90
2023-11-29T16:37:30.363Z,5.82
2023-11-29T16:39:58.494Z,5.10
2023-11-29T16:42:26.104Z,5.35
2023-11-29T16:44:53.781Z,4.80
2023-11-29T16:47:21.018Z,4.72
2023-11-29T16:49:48.174Z,4.97
2023-11-29T16:52:15.321Z,5.13
2023-11-29T16:54:42.620Z,5.13
2023-11-29T16:57:10.024Z,5.07
2023-11-29T16:59:37.357Z,5.03
2023-11-29T17:02:04.864Z,6.15
2023-11-29T17:04:32.141Z,6.40
2023-11-29T17:06:59.310Z,6.07
2023-11-29T17:09:26.533Z,6.43
2023-11-29T17:11:53.784Z,6.05
2023-11-29T17:14:21.016Z,5.32
2023-11-29T17:16:48.790Z,5.68
2023-11-29T17:19:16.041Z,6.30
2023-11-29T17:21:43.211Z,6.18
2023-11-29T17:24:10.460Z,7.32
2023-11-29T17:26:40.422Z,7.40
2023-11-29T17:29:07.697Z,7.13
2023-11-29T17:31:35.776Z,6.20
2023-11-29T17:34:02.924Z,6.63
2023-11-29T17:36:30.105Z,5.32
2023-11-29T17:38:57.314Z,5.05
2023-11-29T17:41:25.125Z,4.97
2023-11-29T17:43:52.288Z,4.75
2023-11-29T17:46:19.911Z,4.60
2023-11-29T17:48:47.315Z,4.57
2023-11-29T17:51:15.232Z,4.22
2023-11-29T17:53:42.468Z,4.22
2023-11-29T17:56:09.826Z,4.18
2023-11-29T17:58:37.118Z,4.35
2023-11-29T18:01:04.454Z,4.53
2023-11-29T18:03:31.725Z,4.93
2023-11-29T18:05:59.053Z,5.07
2023-11-29T18:08:26.222Z,4.43
2023-11-29T18:10:54.656Z,4.72
2023-11-29T18:13:23.763Z,4.65
2023-11-29T18:15:51.100Z,4.25
2023-11-29T18:18:18.403Z,3.70
2023-11-29T18:20:46.241Z,3.80
2023-11-29T18:23:13.488Z,3.53
2023-11-29T18:25:48.672Z,3.80
2023-11-29T18:28:23.833Z,4.10
2023-11-29T18:30:51.010Z,4.65
2023-11-29T18:33:18.454Z,4.15
2023-11-29T18:35:46.034Z,5.45
2023-11-29T18:38:13.336Z,6.10
2023-11-29T18:40:42.599Z,6.32
2023-11-29T18:43:09.956Z,6.30
2023-11-29T18:45:37.147Z,6.57
2023-11-29T18:48:04.584Z,6.10
2023-11-29T18:50:31.849Z,5.22
2023-11-29T18:52:58.994Z,5.55
2023-11-29T18:55:30.119Z,4.95
2023-11-29T18:57:57.593Z,4.97
2023-11-29T19:00:24.796Z,5.28
2023-11-29T19:02:52.410Z,4.75
2023-11-29T19:05:19.807Z,4.90
2023-11-29T19:07:46.976Z,4.45
2023-11-29T19:10:14.172Z,4.20
2023-11-29T19:12:41.353Z,5.03
2023-11-29T19:15:08.792Z,4.28
2023-11-29T19:17:36.009Z,4.10
2023-11-29T19:20:03.436Z,4.00
2023-11-29T19:22:30.701Z,5.68
2023-11-29T19:24:57.886Z,6.43
2023-11-29T19:27:25.093Z,6.20
2023-11-29T19:29:52.224Z,6.50
2023-11-29T19:32:19.410Z,6.50
2023-11-29T19:34:46.540Z,6.15
2023-11-29T19:37:13.943Z,6.68
2023-11-29T19:39:42.304Z,6.35
2023-11-29T19:42:09.627Z,6.68
2023-11-29T19:44:36.881Z,7.10
2023-11-29T19:47:10.635Z,7.22
2023-11-29T19:49:42.106Z,7.22
2023-11-29T19:52:09.466Z,6.65
2023-11-29T19:54:36.857Z,7.15
2023-11-29T19:57:04.274Z,7.55
2023-11-29T19:59:31.475Z,8.27
2023-11-29T20:01:58.729Z,8.13
2023-11-29T20:04:26.040Z,8.18
2023-11-29T20:06:53.325Z,7.78
2023-11-29T20:09:22.255Z,7.70
2023-11-29T20:11:50.160Z,7.60
2023-11-29T20:14:22.486Z,7.07
2023-11-29T20:16:56.043Z,7.32
2023-11-29T20:19:24.591Z,8.10
2023-11-29T20:21:51.814Z,8.07
2023-11-29T20:24:19.082Z,7.60
2023-11-29T20:26:46.288Z,7.88
2023-11-29T20:29:13.483Z,7.68
2023-11-29T20:31:40.739Z,6.60
2023-11-29T20:34:16.908Z,6.85
2023-11-29T20:36:48.571Z,6.18
2023-11-29T20:41:49.142Z,5.68
2023-11-29T20:44:16.759Z,6.07
2023-11-29T20:46:44.541Z,5.65
2023-11-29T20:49:11.763Z,6.03
2023-11-29T20:51:39.522Z,6.20
2023-11-29T20:54:06.826Z,7.18
2023-11-29T20:56:34.033Z,7.50
2023-11-29T20:59:01.212Z,8.18
2023-11-29T21:01:28.435Z,7.45
2023-11-29T21:03:56.883Z,7.38
2023-11-29T21:06:24.409Z,7.13
2023-11-29T21:08:52.122Z,7.32
2023-11-29T21:11:20.461Z,7.40
2023-11-29T21:13:47.718Z,8.02
2023-11-29T21:16:14.937Z,7.22
2023-11-29T21:18:42.384Z,7.20
2023-11-29T21:21:09.746Z,6.80
2023-11-29T21:23:36.908Z,7.45
2023-11-29T21:26:04.195Z,9.05
2023-11-29T21:28:31.464Z,8.00
2023-11-29T21:30:58.744Z,7.70
2023-11-29T21:33:26.010Z,7.68
2023-11-29T21:35:53.213Z,7.75
2023-11-29T21:38:20.451Z,7.13
2023-11-29T21:40:47.662Z,7.45
2023-11-29T21:43:16.947Z,6.93
2023-11-29T21:45:45.709Z,6.53
2023-11-29T21:48:13.431Z,5.85
2023-11-29T21:50:40.680Z,6.53
2023-11-29T21:53:08.964Z,6.13
2023-11-29T21:55:36.396Z,7.18
2023-11-29T21:58:04.130Z,7.28
2023-11-29T22:00:31.524Z,7.22
2023-11-29T22:02:58.775Z,7.68
2023-11-29T22:05:25.974Z,7.65
2023-11-29T22:07:53.212Z,6.22
2023-11-29T22:10:21.070Z,6.43
2023-11-29T22:12:48.306Z,6.45
2023-11-29T22:15:15.588Z,6.53
2023-11-29T22:17:42.941Z,6.30
2023-11-29T22:20:11.379Z,6.68
2023-11-29T22:22:39.199Z,6.78
2023-11-29T22:25:06.537Z,6.35
2023-11-29T22:27:33.880Z,6.78
2023-11-29T22:30:01.330Z,7.55
2023-11-29T22:32:28.488Z,6.45
2023-11-29T22:37:22.886Z,6.28
2023-11-29T22:39:50.071Z,6.15
2023-11-29T22:42:17.439Z,6.63
2023-11-29T22:44:46.278Z,6.45
2023-11-29T22:47:14.716Z,6.57
2023-11-29T22:49:41.928Z,6.40
2023-11-29T22:52:09.122Z,6.38
2023-11-29T22:54:36.396Z,6.53
2023-11-29T22:57:03.743Z,6.32
2023-11-29T22:59:30.906Z,6.70
2023-11-29T23:01:58.185Z,6.85
2023-11-29T23:04:25.516Z,6.72
2023-11-29T23:06:52.690Z,7.30
2023-11-29T23:09:19.980Z,6.07
2023-11-29T23:11:47.380Z,5.57
2023-11-29T23:14:14.592Z,5.35
2023-11-29T23:16:41.869Z,5.50
2023-11-29T23:19:09.031Z,5.25
2023-11-29T23:21:36.219Z,5.05
2023-11-29T23:24:03.468Z,4.80
2023-11-29T23:26:30.675Z,4.45
2023-11-29T23:28:57.853Z,4.30
2023-11-29T23:31:25.128Z,5.13
2023-11-29T23:33:52.448Z,4.78
2023-11-29T23:36:19.792Z,4.93
2023-11-29T23:38:47.118Z,5.10
2023-11-29T23:41:15.771Z,4.63
2023-11-29T23:43:43.000Z,4.90
2023-11-29T23:46:10.181Z,5.65
2023-11-29T23:48:37.449Z,5.72
2023-11-29T23:51:04.765Z,6.07
2023-11-29T23:53:31.968Z,6.25
2023-11-29T23:55:59.160Z,5.68
2023-11-29T23:58:26.331Z,5.53
